»·PEaware :: N235B L52-L88

N235B :: L52-L88

FLIGHT INFORMATION

Flight Status: Arrived
Operator: Privately registered:
United States
More flights under this callsign
Pilot: Jason D. (29273)
Aircraft: CESSNA 172 SKYHAWK
(C172)
More flights by this aircraft type
Origin: L52 Oceano Co
United States
Destination: L88 New Cuyama
United States
More flights between these airports :: More routes between these airports
Route: L52 DCT L88
File this flight plan on PilotEdge
Remarks: Practicing CAT 1
Altitude:
(Current/Filed)
3,500ft
Speed:
(Current/Filed)
180kts
Departed: 02-Aug-20 12:31 PM
Arrived: 02-Aug-20 12:54 PM
Distance/Time
Traveled:
47nm/0:23
Distance/Time
To Go:
Arrived

Flight Plot

Page will automatically refresh every two minutes.


Map Options




Map Legend


Flown Route
Filed Route
Departure Airport
Arrival Airport
Navaid (VOR, NDB)
Fix

Horizontal Profiles

Position Reports

Time Latitude Longitude Heading Altitude Ground
Speed
02-Aug-20 12:13 35.102098 -120.622279 213 17ft 0kts
02-Aug-20 12:13 35.102098 -120.622279 213 17ft 0kts
02-Aug-20 12:14 35.102098 -120.622279 213 17ft 0kts
02-Aug-20 12:15 35.102098 -120.622279 213 17ft 0kts
02-Aug-20 12:16 35.102098 -120.622279 213 17ft 0kts
02-Aug-20 12:17 35.102098 -120.622279 213 17ft 0kts
02-Aug-20 12:18 35.102098 -120.622279 213 17ft 0kts
02-Aug-20 12:19 35.102098 -120.622279 213 17ft 0kts
02-Aug-20 12:20 35.102098 -120.622279 213 17ft 0kts
02-Aug-20 12:21 35.102098 -120.622279 213 17ft 0kts
02-Aug-20 12:22 35.102098 -120.622279 213 17ft 0kts
02-Aug-20 12:23 35.102098 -120.622279 213 17ft 0kts
02-Aug-20 12:24 35.102098 -120.622279 213 17ft 0kts
02-Aug-20 12:25 35.102098 -120.622279 213 17ft 0kts
02-Aug-20 12:26 35.101734 -120.622690 293 15ft 7kts
02-Aug-20 12:27 35.102652 -120.623448 135 15ft 15kts
02-Aug-20 12:28 35.101041 -120.622338 123 16ft 10kts
02-Aug-20 12:29 35.099939 -120.619452 306 17ft 3kts
02-Aug-20 12:30 35.104657 -120.628469 299 154ft 49kts
02-Aug-20 12:31 35.100432 -120.635170 104 636ft 88kts
02-Aug-20 12:32 35.097471 -120.604730 86 1428ft 79kts
02-Aug-20 12:33 35.094529 -120.580013 91 2111ft 71kts
02-Aug-20 12:34 35.090305 -120.556124 99 2681ft 73kts
02-Aug-20 12:35 35.085906 -120.531828 98 3234ft 73kts
02-Aug-20 12:36 35.080441 -120.502730 102 3505ft 112kts
02-Aug-20 12:37 35.073992 -120.462764 97 3779ft 125kts
02-Aug-20 12:38 35.067415 -120.420391 104 3912ft 135kts
02-Aug-20 12:39 35.059121 -120.372307 103 3610ft 144kts
02-Aug-20 12:40 35.049386 -120.326261 99 3565ft 135kts
02-Aug-20 12:41 35.043428 -120.280907 96 3586ft 134kts
02-Aug-20 12:42 35.036333 -120.236017 101 3595ft 135kts
02-Aug-20 12:43 35.027632 -120.191254 102 3575ft 136kts
02-Aug-20 12:44 35.020583 -120.148380 115 3559ft 119kts
02-Aug-20 12:45 35.011483 -120.111374 95 3565ft 113kts
02-Aug-20 12:46 35.007385 -120.073497 105 3635ft 112kts
02-Aug-20 12:47 35.000938 -120.036617 104 3661ft 111kts
02-Aug-20 12:48 34.996240 -120.006007 105 4395ft 62kts
02-Aug-20 12:49 34.995410 -120.004488 274 4472ft 21kts
02-Aug-20 12:50 34.995410 -120.004488 274 4472ft 21kts
02-Aug-20 12:51 34.995410 -120.004488 274 4472ft 21kts
02-Aug-20 12:53 34.942854 -119.690285 204 2156ft 0kts
02-Aug-20 12:54 34.942854 -119.690285 204 2156ft 0kts
02-Aug-20 12:55 34.942854 -119.690285 204 2156ft 0kts
02-Aug-20 12:56 34.942854 -119.690285 204 2156ft 0kts
02-Aug-20 12:57 34.942854 -119.690285 204 2156ft 0kts
02-Aug-20 12:58 34.942854 -119.690285 204 2156ft 0kts
02-Aug-20 12:59 34.942854 -119.690285 204 2156ft 0kts
02-Aug-20 13:00 34.942854 -119.690285 204 2156ft 0kts
02-Aug-20 13:01 34.942854 -119.690285 204 2156ft 0kts
02-Aug-20 13:02 34.942854 -119.690285 204 2156ft 0kts
02-Aug-20 13:03 34.942854 -119.690285 204 2156ft 0kts

Navigation Log

Ident Type
Flight plan parsing failed, navigation log unavailable